createdAt,value
2023-01-26T00:01:53.729Z,67.85
2023-01-26T00:04:20.622Z,68.35
2023-01-26T00:06:47.439Z,73.00
2023-01-26T00:09:15.523Z,77.18
2023-01-26T00:11:42.672Z,74.65
2023-01-26T00:14:09.498Z,75.50
2023-01-26T00:16:38.470Z,69.60
2023-01-26T00:19:05.574Z,74.22
2023-01-26T00:21:32.525Z,66.65
2023-01-26T00:24:00.166Z,57.22
2023-01-26T00:26:28.495Z,41.78
2023-01-26T00:28:55.549Z,51.67
2023-01-26T00:31:25.825Z,47.15
2023-01-26T00:33:54.524Z,50.70
2023-01-26T00:36:21.513Z,39.88
2023-01-26T00:38:51.917Z,37.38
2023-01-26T00:41:37.222Z,35.50
2023-01-26T00:44:04.061Z,39.03
2023-01-26T00:46:30.970Z,39.17
2023-01-26T00:48:58.269Z,38.25
2023-01-26T00:51:27.588Z,38.95
2023-01-26T00:53:54.373Z,44.55
2023-01-26T00:56:23.812Z,40.38
2023-01-26T00:58:52.162Z,42.80
2023-01-26T01:01:18.915Z,42.53
2023-01-26T01:03:45.891Z,38.13
2023-01-26T01:06:12.689Z,33.75
2023-01-26T01:08:39.458Z,43.00
2023-01-26T01:11:16.459Z,46.58
2023-01-26T01:13:43.327Z,34.85
2023-01-26T01:16:13.342Z,37.95
2023-01-26T01:18:40.366Z,35.50
2023-01-26T01:21:13.342Z,35.25
2023-01-26T01:23:40.551Z,39.05
2023-01-26T01:26:07.637Z,34.25
2023-01-26T01:28:37.514Z,37.38
2023-01-26T01:31:10.206Z,39.53
2023-01-26T01:33:37.504Z,41.97
2023-01-26T01:36:06.808Z,42.92
2023-01-26T01:38:36.466Z,38.40
2023-01-26T01:41:03.467Z,41.67
2023-01-26T01:43:31.472Z,39.33
2023-01-26T01:46:01.068Z,38.90
2023-01-26T01:49:00.424Z,40.33
2023-01-26T01:51:44.357Z,36.80
2023-01-26T01:54:17.800Z,42.35
2023-01-26T01:56:50.333Z,45.70
2023-01-26T01:59:20.695Z,40.97
2023-01-26T02:01:51.052Z,40.50
2023-01-26T02:04:22.580Z,41.10
2023-01-26T02:06:52.784Z,44.53
2023-01-26T02:09:44.901Z,43.22
2023-01-26T02:12:14.286Z,42.50
2023-01-26T02:14:44.256Z,42.05
2023-01-26T02:17:11.089Z,45.20
2023-01-26T02:20:14.222Z,44.92
2023-01-26T02:23:01.413Z,49.47
2023-01-26T02:25:51.836Z,43.03
2023-01-26T02:28:25.953Z,47.00
2023-01-26T02:30:54.381Z,44.65
2023-01-26T02:33:23.862Z,44.80
2023-01-26T02:35:50.803Z,42.15
2023-01-26T02:38:19.382Z,41.30
2023-01-26T02:40:56.212Z,45.63
2023-01-26T02:43:26.207Z,47.00
2023-01-26T02:45:55.223Z,38.00
2023-01-26T02:48:43.934Z,37.67
2023-01-26T02:51:10.880Z,47.30
2023-01-26T02:53:37.681Z,43.15
2023-01-26T02:56:04.704Z,39.97
2023-01-26T02:58:31.546Z,36.38
2023-01-26T03:00:58.388Z,42.13
2023-01-26T03:03:41.700Z,49.65
2023-01-26T03:06:10.560Z,44.20
2023-01-26T03:08:38.558Z,40.78
2023-01-26T03:11:06.868Z,47.10
2023-01-26T03:13:33.880Z,44.40
2023-01-26T03:16:06.969Z,42.47
2023-01-26T03:18:53.948Z,40.40
2023-01-26T03:21:39.211Z,41.17
2023-01-26T03:24:24.570Z,41.75
2023-01-26T03:27:10.133Z,48.08
2023-01-26T03:29:36.921Z,44.25
2023-01-26T03:32:03.903Z,50.60
2023-01-26T03:34:30.774Z,46.67
2023-01-26T03:36:57.732Z,44.47
2023-01-26T03:39:43.061Z,46.33
2023-01-26T03:42:28.295Z,42.13
2023-01-26T03:45:13.943Z,46.10
2023-01-26T03:48:00.888Z,43.15
2023-01-26T03:50:46.302Z,52.67
2023-01-26T03:53:40.307Z,49.13
2023-01-26T03:56:32.581Z,49.00
2023-01-26T03:59:17.136Z,51.55
2023-01-26T04:02:06.119Z,52.70
2023-01-26T04:04:51.356Z,46.15
2023-01-26T04:07:37.531Z,46.05
2023-01-26T04:10:04.515Z,49.38
2023-01-26T04:12:31.281Z,53.35
2023-01-26T04:15:16.460Z,47.40
2023-01-26T04:18:01.777Z,54.85
2023-01-26T04:20:47.027Z,56.63
2023-01-26T04:23:20.364Z,50.78
2023-01-26T04:25:50.164Z,58.25
2023-01-26T04:28:16.919Z,60.28
2023-01-26T04:30:43.824Z,54.90
2023-01-26T04:33:10.635Z,71.18
2023-01-26T04:35:37.400Z,55.25
2023-01-26T04:38:04.157Z,63.45
2023-01-26T04:40:30.935Z,60.22
2023-01-26T04:43:01.851Z,61.95
2023-01-26T04:45:28.672Z,62.88
2023-01-26T04:47:59.543Z,59.45
2023-01-26T04:50:26.654Z,64.77
2023-01-26T04:52:53.411Z,60.10
2023-01-26T04:55:21.690Z,70.75
2023-01-26T04:57:48.723Z,65.88
2023-01-26T05:00:17.598Z,70.25
2023-01-26T05:02:46.916Z,70.65
2023-01-26T05:05:13.777Z,77.32
2023-01-26T05:07:40.539Z,75.65
2023-01-26T05:10:07.694Z,76.80
2023-01-26T05:12:34.506Z,78.10
2023-01-26T05:15:01.349Z,77.82
2023-01-26T05:17:28.180Z,77.90
2023-01-26T05:19:54.951Z,80.60
2023-01-26T05:22:21.682Z,80.68
2023-01-26T05:24:48.453Z,79.65
2023-01-26T05:27:21.358Z,73.25
2023-01-26T05:29:54.357Z,72.75
2023-01-26T05:32:22.235Z,72.03
2023-01-26T05:34:50.244Z,70.85
2023-01-26T05:37:19.836Z,75.88
2023-01-26T05:39:49.381Z,72.90
2023-01-26T05:42:16.217Z,68.55
2023-01-26T05:44:43.011Z,71.35
2023-01-26T05:47:11.886Z,65.18
2023-01-26T05:49:41.654Z,68.13
2023-01-26T05:52:20.081Z,66.05
2023-01-26T05:54:48.075Z,70.60
2023-01-26T05:57:16.999Z,69.50
2023-01-26T05:59:46.152Z,66.82
2023-01-26T06:02:13.171Z,66.32
2023-01-26T06:04:40.218Z,65.22
2023-01-26T06:07:07.096Z,65.72
2023-01-26T06:09:33.865Z,68.28
2023-01-26T06:12:00.735Z,64.80
2023-01-26T06:14:27.659Z,65.40
2023-01-26T06:16:54.945Z,65.13
2023-01-26T06:19:21.846Z,68.32
2023-01-26T06:21:48.776Z,68.50
2023-01-26T06:24:15.786Z,63.53
2023-01-26T06:26:42.733Z,66.40
2023-01-26T06:29:11.750Z,63.05
2023-01-26T06:31:39.141Z,60.13
2023-01-26T06:34:06.070Z,64.75
2023-01-26T06:36:34.955Z,65.18
2023-01-26T06:39:01.736Z,64.75
2023-01-26T06:41:29.770Z,64.50
2023-01-26T06:43:56.558Z,69.15
2023-01-26T06:46:25.986Z,64.32
2023-01-26T06:48:52.873Z,65.93
2023-01-26T06:51:22.194Z,61.63
2023-01-26T06:53:52.329Z,63.03
2023-01-26T06:56:19.684Z,60.22
2023-01-26T06:58:46.645Z,63.40
2023-01-26T07:01:22.566Z,64.43
2023-01-26T07:03:50.336Z,67.15
2023-01-26T07:06:24.857Z,64.30
2023-01-26T07:08:54.281Z,61.83
2023-01-26T07:11:22.113Z,68.93
2023-01-26T07:13:48.877Z,64.80
2023-01-26T07:16:19.574Z,61.90
2023-01-26T07:18:48.532Z,66.37
2023-01-26T07:21:21.131Z,64.10
2023-01-26T07:23:56.768Z,63.42
2023-01-26T07:26:23.935Z,66.72
2023-01-26T07:28:50.918Z,64.68
2023-01-26T07:31:20.371Z,63.72
2023-01-26T07:33:51.342Z,66.90
2023-01-26T07:36:18.279Z,68.28
2023-01-26T07:38:45.214Z,64.85
2023-01-26T07:41:15.565Z,64.13
2023-01-26T07:43:42.864Z,64.57
2023-01-26T07:46:12.474Z,65.15
2023-01-26T08:02:01.607Z,59.10
2023-01-26T08:10:03.429Z,62.92
2023-01-26T08:12:30.964Z,62.05
2023-01-26T08:33:59.655Z,52.67
2023-01-26T08:36:28.965Z,55.22
2023-01-26T08:38:56.562Z,66.82
2023-01-26T08:41:23.653Z,56.60
2023-01-26T08:43:53.096Z,53.92
2023-01-26T08:46:20.593Z,60.28
2023-01-26T08:48:48.964Z,64.57
2023-01-26T08:51:16.467Z,60.40
2023-01-26T08:53:43.582Z,53.25
2023-01-26T08:56:13.031Z,55.28
2023-01-26T08:58:41.858Z,51.40
2023-01-26T09:01:12.496Z,60.90
2023-01-26T09:03:39.587Z,53.67
2023-01-26T09:06:10.104Z,56.88
2023-01-26T09:08:37.102Z,60.22
2023-01-26T09:11:07.380Z,52.97
2023-01-26T09:13:37.055Z,57.58
2023-01-26T09:16:06.111Z,54.15
2023-01-26T09:18:36.945Z,55.28
2023-01-26T09:21:06.112Z,55.30
2023-01-26T09:23:34.375Z,55.92
2023-01-26T09:26:04.709Z,61.72
2023-01-26T09:28:31.909Z,54.67
2023-01-26T09:31:07.024Z,55.30
2023-01-26T09:33:34.388Z,55.85
2023-01-26T09:36:13.483Z,57.38
2023-01-26T09:38:40.762Z,56.83
2023-01-26T09:41:15.525Z,60.40
2023-01-26T09:43:52.923Z,56.38
2023-01-26T09:47:02.665Z,51.80
2023-01-26T09:49:44.496Z,58.70
2023-01-26T09:54:55.193Z,61.35
2023-01-26T09:57:54.789Z,58.00
2023-01-26T10:00:33.039Z,66.15
2023-01-26T10:03:13.565Z,65.25
2023-01-26T10:06:10.587Z,59.17
2023-01-26T10:08:37.408Z,62.20
2023-01-26T10:11:15.018Z,61.33
2023-01-26T10:13:51.842Z,63.97
2023-01-26T10:16:19.078Z,61.55
2023-01-26T10:18:54.247Z,65.25
2023-01-26T10:21:25.303Z,66.07
2023-01-26T10:23:53.169Z,69.88
2023-01-26T10:26:24.198Z,60.45
2023-01-26T10:28:54.119Z,63.60
2023-01-26T10:31:24.836Z,59.22
2023-01-26T10:33:59.506Z,60.38
2023-01-26T10:36:32.321Z,56.50
2023-01-26T10:39:07.520Z,58.08
2023-01-26T10:41:35.150Z,63.30
2023-01-26T10:44:12.411Z,63.38
2023-01-26T10:46:41.819Z,57.97
2023-01-26T10:49:10.750Z,57.08
2023-01-26T10:51:41.794Z,58.78
2023-01-26T10:54:22.353Z,55.47
2023-01-26T10:56:58.687Z,59.78
2023-01-26T10:59:33.428Z,59.45
2023-01-26T11:02:20.796Z,53.45
2023-01-26T11:05:05.215Z,60.10
2023-01-26T11:07:40.360Z,60.15
2023-01-26T11:10:35.733Z,62.38
2023-01-26T11:13:14.639Z,56.45
2023-01-26T11:15:44.046Z,58.30
2023-01-26T11:18:55.140Z,63.25
2023-01-26T11:21:42.366Z,53.28
2023-01-26T11:24:26.707Z,51.75
2023-01-26T11:27:25.296Z,59.97
2023-01-26T11:30:10.043Z,60.75
2023-01-26T11:33:06.391Z,56.88
2023-01-26T11:35:51.165Z,52.95
2023-01-26T11:38:28.784Z,56.08
2023-01-26T11:41:33.697Z,56.17
2023-01-26T11:44:28.495Z,55.78
2023-01-26T11:47:03.687Z,53.17
2023-01-26T11:49:36.653Z,55.50
2023-01-26T11:52:46.163Z,63.22
2023-01-26T11:55:30.327Z,52.55
2023-01-26T11:58:17.337Z,52.97
2023-01-26T12:00:52.419Z,50.70
2023-01-26T12:03:30.461Z,52.85
2023-01-26T12:06:07.461Z,57.38
2023-01-26T12:08:45.634Z,51.08
2023-01-26T12:11:38.384Z,54.40
2023-01-26T12:14:18.355Z,51.47
2023-01-26T12:17:17.779Z,52.13
2023-01-26T12:19:54.735Z,48.63
2023-01-26T12:22:37.660Z,48.55
2023-01-26T12:25:38.501Z,51.40
2023-01-26T12:28:20.694Z,51.65
2023-01-26T12:31:10.317Z,48.05
2023-01-26T12:33:39.079Z,47.63
2023-01-26T12:36:28.033Z,48.40
2023-01-26T12:39:39.735Z,49.72
2023-01-26T12:42:46.243Z,45.70
2023-01-26T12:45:39.579Z,48.90
2023-01-26T12:48:19.419Z,49.03
2023-01-26T12:50:57.933Z,45.80
2023-01-26T12:53:38.012Z,49.72
2023-01-26T12:56:08.543Z,41.03
2023-01-26T12:58:40.525Z,48.40
2023-01-26T13:01:12.716Z,42.08
2023-01-26T13:03:47.555Z,53.35
2023-01-26T13:06:14.302Z,42.88
2023-01-26T13:09:04.461Z,46.33
2023-01-26T13:11:47.583Z,43.25
2023-01-26T13:14:45.716Z,48.75
2023-01-26T13:17:15.521Z,43.75
2023-01-26T13:19:42.297Z,42.03
2023-01-26T13:22:24.313Z,41.92
2023-01-26T13:25:25.910Z,45.13
2023-01-26T13:28:03.706Z,44.25
2023-01-26T13:30:42.319Z,40.72
2023-01-26T13:33:24.473Z,40.88
2023-01-26T13:35:56.018Z,40.75
2023-01-26T13:38:40.468Z,40.75
2023-01-26T13:41:14.860Z,41.70
2023-01-26T13:43:56.139Z,39.80
2023-01-26T13:46:38.063Z,37.97
2023-01-26T13:51:36.856Z,45.63
2023-01-26T13:54:20.075Z,43.20
2023-01-26T13:57:05.488Z,37.13
2023-01-26T13:59:33.326Z,38.90
2023-01-26T14:02:00.605Z,43.65
2023-01-26T14:04:32.685Z,35.17
2023-01-26T14:07:19.041Z,39.53
2023-01-26T14:09:52.224Z,39.00
2023-01-26T14:12:27.464Z,42.83
2023-01-26T14:15:04.805Z,38.67
2023-01-26T14:17:44.346Z,39.30
2023-01-26T14:20:37.925Z,38.38
2023-01-26T14:23:17.361Z,39.30
2023-01-26T14:25:57.756Z,41.72
2023-01-26T14:28:29.040Z,46.10
2023-01-26T14:31:02.013Z,38.33
2023-01-26T14:33:29.297Z,39.28
2023-01-26T14:36:01.080Z,42.83
2023-01-26T14:41:00.233Z,40.03
2023-01-26T14:43:27.850Z,42.97
2023-01-26T14:46:13.149Z,43.53
2023-01-26T14:48:51.659Z,49.65
2023-01-26T14:51:24.878Z,43.08
2023-01-26T14:54:00.870Z,42.38
2023-01-26T14:56:36.565Z,43.22
2023-01-26T14:59:05.107Z,41.00
2023-01-26T15:01:32.665Z,47.53
2023-01-26T15:04:21.942Z,41.40
2023-01-26T15:06:48.784Z,40.25
2023-01-26T15:09:35.805Z,45.35
2023-01-26T15:12:18.467Z,45.78
2023-01-26T15:14:57.063Z,41.28
2023-01-26T15:17:42.260Z,44.20
2023-01-26T15:20:35.647Z,45.45
2023-01-26T15:23:02.467Z,41.95
2023-01-26T15:25:32.832Z,41.58
2023-01-26T15:28:00.970Z,65.22
2023-01-26T15:30:32.396Z,114.18
2023-01-26T15:33:00.245Z,165.95
2023-01-26T15:35:32.561Z,130.13
2023-01-26T15:38:06.739Z,92.85
2023-01-26T15:40:35.890Z,77.15
2023-01-26T15:43:24.040Z,73.40
2023-01-26T15:45:56.186Z,49.42
2023-01-26T15:48:26.056Z,51.83
2023-01-26T15:50:53.189Z,49.35
2023-01-26T15:53:23.752Z,56.25
2023-01-26T15:55:56.108Z,55.30
2023-01-26T15:58:23.913Z,52.47
2023-01-26T16:00:51.295Z,47.58
2023-01-26T16:03:23.319Z,54.58
2023-01-26T16:05:50.248Z,54.22
2023-01-26T16:08:19.886Z,56.08
2023-01-26T16:10:47.535Z,52.92
2023-01-26T16:13:19.145Z,56.30
2023-01-26T16:15:51.184Z,50.67
2023-01-26T16:18:19.963Z,56.00
2023-01-26T16:20:51.011Z,51.30
2023-01-26T16:23:21.217Z,55.63
2023-01-26T16:25:49.009Z,49.38
2023-01-26T16:28:16.064Z,61.42
2023-01-26T16:30:48.071Z,52.45
2023-01-26T16:33:18.089Z,53.03
2023-01-26T16:35:44.873Z,50.58
2023-01-26T16:38:15.636Z,54.47
2023-01-26T16:40:44.967Z,47.90
2023-01-26T16:43:24.129Z,46.85
2023-01-26T16:45:54.766Z,44.65
2023-01-26T16:48:25.269Z,42.65
2023-01-26T16:50:53.948Z,41.00
2023-01-26T16:53:33.160Z,49.22
2023-01-26T16:56:00.005Z,51.20
2023-01-26T16:58:35.357Z,46.85
2023-01-26T17:01:02.200Z,46.63
2023-01-26T17:03:31.508Z,45.20
2023-01-26T17:05:58.608Z,52.38
2023-01-26T17:08:28.121Z,48.50
2023-01-26T17:11:02.332Z,46.72
2023-01-26T17:13:31.241Z,46.13
2023-01-26T17:16:01.187Z,44.17
2023-01-26T17:18:30.990Z,43.67
2023-01-26T17:21:03.086Z,49.30
2023-01-26T17:23:31.403Z,46.47
2023-01-26T17:25:59.788Z,44.53
2023-01-26T17:28:29.789Z,41.20
2023-01-26T17:30:57.331Z,38.25
2023-01-26T17:33:25.139Z,41.33
2023-01-26T17:36:03.544Z,42.60
2023-01-26T17:38:30.576Z,40.60
2023-01-26T17:40:58.657Z,46.22
2023-01-26T17:43:25.922Z,40.40
2023-01-26T17:46:02.171Z,44.42
2023-01-26T17:48:29.356Z,43.40
2023-01-26T17:50:58.307Z,34.78
2023-01-26T17:53:25.110Z,41.13
2023-01-26T17:55:52.589Z,42.70
2023-01-26T17:58:19.397Z,36.90
2023-01-26T18:00:49.039Z,46.75
2023-01-26T18:03:17.016Z,42.13
2023-01-26T18:05:52.897Z,42.40
2023-01-26T18:08:20.188Z,40.80
2023-01-26T18:10:47.561Z,38.55
2023-01-26T18:13:14.828Z,36.83
2023-01-26T18:15:47.086Z,38.92
2023-01-26T18:18:14.587Z,41.35
2023-01-26T18:20:41.479Z,37.85
2023-01-26T18:23:08.254Z,34.78
2023-01-26T18:25:36.532Z,35.13
2023-01-26T18:28:03.590Z,39.53
2023-01-26T18:30:33.234Z,36.75
2023-01-26T18:33:01.571Z,36.63
2023-01-26T18:35:30.636Z,31.20
2023-01-26T18:38:02.020Z,37.58
2023-01-26T18:40:30.946Z,35.85
2023-01-26T18:43:03.894Z,30.48
2023-01-26T18:45:32.840Z,33.00
2023-01-26T18:47:59.698Z,43.50
2023-01-26T18:50:26.435Z,36.33
2023-01-26T18:52:53.209Z,32.70
2023-01-26T18:55:20.239Z,29.75
2023-01-26T18:57:51.133Z,30.67
2023-01-26T19:00:18.421Z,33.08
2023-01-26T19:02:45.187Z,34.10
2023-01-26T19:05:12.414Z,31.95
2023-01-26T19:07:39.328Z,33.10
2023-01-26T19:10:08.469Z,29.67
2023-01-26T19:12:35.363Z,31.60
2023-01-26T19:15:02.181Z,32.90
2023-01-26T19:17:38.082Z,31.80
2023-01-26T19:20:05.357Z,33.28
2023-01-26T19:22:32.106Z,34.20
2023-01-26T19:24:58.860Z,39.63
2023-01-26T19:27:25.669Z,39.88
2023-01-26T19:29:54.360Z,42.25
2023-01-26T19:32:21.094Z,35.88
2023-01-26T19:34:47.975Z,34.72
2023-01-26T19:37:14.971Z,35.58
2023-01-26T19:39:44.194Z,31.42
2023-01-26T19:42:10.963Z,35.33
2023-01-26T19:44:37.833Z,51.30
2023-01-26T19:47:04.714Z,44.10
2023-01-26T19:49:33.593Z,37.40
2023-01-26T19:52:02.824Z,34.30
2023-01-26T19:54:31.724Z,32.53
2023-01-26T19:56:58.660Z,32.47
2023-01-26T19:59:27.340Z,35.28
2023-01-26T20:01:54.154Z,36.05
2023-01-26T20:04:20.908Z,35.33
2023-01-26T20:06:48.912Z,33.53
2023-01-26T20:11:56.285Z,33.40
2023-01-26T20:14:23.058Z,36.78
2023-01-26T20:16:52.580Z,34.75
2023-01-26T20:19:19.409Z,34.15
2023-01-26T20:21:48.957Z,33.33
2023-01-26T20:24:16.413Z,32.65
2023-01-26T20:26:48.852Z,30.45
2023-01-26T20:29:17.902Z,30.85
2023-01-26T20:31:48.451Z,34.03
2023-01-26T20:34:18.284Z,35.67
2023-01-26T20:36:45.542Z,33.38
2023-01-26T20:39:15.136Z,41.42
2023-01-26T20:41:41.917Z,27.50
2023-01-26T20:44:09.069Z,33.47
2023-01-26T20:46:42.366Z,32.33
2023-01-26T20:49:12.684Z,33.83
2023-01-26T20:51:45.446Z,38.63
2023-01-26T20:54:14.872Z,37.50
2023-01-26T20:56:42.916Z,37.53
2023-01-26T20:59:11.047Z,35.03
2023-01-26T21:01:37.948Z,37.55
2023-01-26T21:04:05.493Z,37.88
2023-01-26T21:06:32.519Z,40.05
2023-01-26T21:09:21.220Z,46.53
2023-01-26T21:11:48.033Z,39.03
2023-01-26T21:14:19.440Z,44.17
2023-01-26T21:16:46.224Z,46.50
2023-01-26T21:19:13.020Z,46.70
2023-01-26T21:21:39.921Z,51.17
2023-01-26T21:24:08.302Z,44.92
2023-01-26T21:26:35.126Z,45.25
2023-01-26T21:29:02.027Z,46.55
2023-01-26T21:31:32.676Z,51.42
2023-01-26T21:34:00.689Z,49.08
2023-01-26T21:36:31.043Z,57.28
2023-01-26T21:38:59.509Z,51.63
2023-01-26T21:41:48.181Z,52.33
2023-01-26T21:44:17.806Z,50.25
2023-01-26T21:46:45.949Z,54.22
2023-01-26T21:49:16.219Z,49.75
2023-01-26T21:52:02.131Z,51.95
2023-01-26T21:54:29.993Z,55.65
2023-01-26T21:56:57.786Z,52.50
2023-01-26T21:59:24.640Z,50.67
2023-01-26T22:01:54.602Z,49.28
2023-01-26T22:04:29.450Z,53.40
2023-01-26T22:06:57.311Z,51.65
2023-01-26T22:09:24.432Z,52.58
2023-01-26T22:11:52.156Z,47.55
2023-01-26T22:14:27.533Z,48.90
2023-01-26T22:16:54.407Z,52.95
2023-01-26T22:19:21.281Z,50.88
2023-01-26T22:21:48.096Z,54.35
2023-01-26T22:24:15.552Z,53.10
2023-01-26T22:26:42.662Z,47.90
2023-01-26T22:29:12.002Z,48.90
2023-01-26T22:31:38.911Z,50.40
2023-01-26T22:34:05.791Z,50.65
2023-01-26T22:36:33.401Z,40.72
2023-01-26T22:39:02.895Z,48.85
2023-01-26T22:41:30.606Z,47.30
2023-01-26T22:44:01.562Z,55.00
2023-01-26T22:46:30.063Z,47.28
2023-01-26T22:48:58.474Z,47.80
2023-01-26T22:51:28.452Z,50.70
2023-01-26T22:53:56.767Z,46.55
2023-01-26T22:56:24.561Z,51.08
2023-01-26T22:58:59.351Z,48.42
2023-01-26T23:01:36.935Z,52.83
2023-01-26T23:04:03.852Z,54.35
2023-01-26T23:06:32.049Z,45.15
2023-01-26T23:09:01.071Z,56.65
2023-01-26T23:11:29.513Z,47.35
2023-01-26T23:13:57.856Z,46.90
2023-01-26T23:16:25.625Z,54.35
2023-01-26T23:18:54.854Z,48.90
2023-01-26T23:21:22.427Z,49.97
2023-01-26T23:23:49.504Z,48.72
2023-01-26T23:26:16.625Z,42.20
2023-01-26T23:28:44.604Z,44.47
2023-01-26T23:31:13.034Z,50.00
2023-01-26T23:33:40.200Z,50.42
2023-01-26T23:36:08.114Z,45.60
2023-01-26T23:38:34.951Z,50.22
2023-01-26T23:41:02.187Z,45.35
2023-01-26T23:43:29.105Z,48.90
2023-01-26T23:45:59.073Z,47.75
2023-01-26T23:48:26.453Z,46.53
2023-01-26T23:50:59.139Z,45.95
2023-01-26T23:53:26.599Z,49.92
2023-01-26T23:55:53.504Z,48.83
2023-01-26T23:58:21.343Z,44.90
